Time;durP1;ratioP1;P1;durP2;ratioP2;P2;SDS_P1;SDS_P2;PMS_P1;PMS_P2;Temp;Humidity;BMP_temperature;BMP_pressure;BME280_temperature;BME280_humidity;BME280_pressure;Samples;Min_cycle;Max_cycle;Signal;HPM_P1;HPM_P2
2022/01/15 00:00:27;;;;;;;;;;;6.70;99.90;;;;;;5137410;27;19960;-72
2022/01/15 00:02:56;;;;;;;;;;;6.70;99.90;;;;;;5159636;27;19919;-71
2022/01/15 00:05:22;;;;;;;;;;;6.70;99.90;;;;;;5140220;27;19930;-69
2022/01/15 00:07:48;;;;;;;;;;;6.70;99.90;;;;;;5157690;27;20371;-70
2022/01/15 00:10:17;;;;;;;;;;;6.70;99.90;;;;;;5159180;27;20466;-70
2022/01/15 00:12:43;;;;;;;;;;;6.70;99.90;;;;;;5140821;27;19933;-69
2022/01/15 00:15:13;;;;;;;;;;;6.70;99.90;;;;;;5161115;27;19931;-70
2022/01/15 00:17:48;;;;;;;;;;;6.60;99.90;;;;;;5163022;27;19933;-71
2022/01/15 00:20:16;;;;;;;;;;;6.60;99.90;;;;;;5141297;27;19948;-70
2022/01/15 00:22:45;;;;;;;;;;;6.50;99.90;;;;;;5123508;27;19972;-69
2022/01/15 00:25:11;;;;;;;;;;;6.50;99.90;;;;;;5139835;27;19919;-70
2022/01/15 00:27:39;;;;;;;;;;;6.50;99.90;;;;;;5119857;27;19999;-70
2022/01/15 00:30:05;;;;;;;;;;;6.50;99.90;;;;;;5156493;27;20500;-70
2022/01/15 00:32:31;;;;;;;;;;;6.50;99.90;;;;;;5138765;27;19927;-69
2022/01/15 00:34:58;;;;;;;;;;;6.50;99.90;;;;;;5127499;27;19923;-70
2022/01/15 00:37:33;;;;;;;;;;;6.50;99.90;;;;;;5161828;27;19923;-70
2022/01/15 00:39:59;;;;;;;;;;;6.50;99.90;;;;;;5160380;27;20395;-70
2022/01/15 00:42:26;;;;;;;;;;;6.50;99.90;;;;;;5161692;27;19954;-70
2022/01/15 00:44:52;;;;;;;;;;;6.60;99.90;;;;;;5140677;27;19929;-70
2022/01/15 00:47:18;;;;;;;;;;;6.60;99.90;;;;;;5153880;27;20005;-70
2022/01/15 00:49:44;;;;;;;;;;;6.50;99.90;;;;;;5152608;27;19927;-71
2022/01/15 00:52:09;;;;;;;;;;;6.60;99.90;;;;;;5134732;27;19923;-70
2022/01/15 00:54:38;;;;;;;;;;;6.60;99.90;;;;;;5155654;27;19930;-70
2022/01/15 00:57:04;;;;;;;;;;;6.60;99.90;;;;;;5145234;27;19926;-70
2022/01/15 00:59:29;;;;;;;;;;;6.50;99.90;;;;;;5173703;27;19938;-70
2022/01/15 01:01:55;;;;;;;;;;;6.50;99.90;;;;;;5154393;27;20239;-70
2022/01/15 01:04:21;;;;;;;;;;;6.40;99.90;;;;;;5152851;27;20386;-69
2022/01/15 01:06:47;;;;;;;;;;;6.50;99.90;;;;;;5167457;27;20009;-70
2022/01/15 01:09:12;;;;;;;;;;;6.30;99.90;;;;;;5135475;27;20006;-70
2022/01/15 01:11:55;;;;;;;;;;;6.40;99.90;;;;;;5152395;27;19927;-70
2022/01/15 01:22:53;;;;;;;;;;;6.50;99.90;;;;;;5153844;27;19927;-69
2022/01/15 01:25:22;;;;;;;;;;;6.50;99.90;;;;;;5152471;27;20006;-69
2022/01/15 01:27:52;;;;;;;;;;;6.50;99.90;;;;;;5170091;27;20348;-69
2022/01/15 01:35:14;;;;;;;;;;;6.40;99.90;;;;;;5171598;27;19923;-69
2022/01/15 01:37:45;;;;;;;;;;;6.30;99.90;;;;;;5139650;27;19927;-70
2022/01/15 01:40:38;;;;;;;;;;;6.30;99.90;;;;;;5149746;27;20014;-69
2022/01/15 01:43:09;;;;;;;;;;;6.20;99.90;;;;;;5153077;27;20481;-69
2022/01/15 01:45:34;;;;;;;;;;;6.20;99.90;;;;;;5152944;27;19923;-72
2022/01/15 01:48:00;;;;;;;;;;;6.10;99.90;;;;;;5151479;27;19934;-69
2022/01/15 01:50:27;;;;;;;;;;;6.40;99.90;;;;;;5165696;27;19927;-70
2022/01/15 01:52:56;;;;;;;;;;;6.10;99.90;;;;;;5172702;27;19927;-70
2022/01/15 01:55:23;;;;;;;;;;;6.10;99.90;;;;;;5154917;27;19974;-69
2022/01/15 01:57:49;;;;;;;;;;;6.10;99.90;;;;;;5171226;27;20507;-71
2022/01/15 02:00:16;;;;;;;;;;;6.10;99.90;;;;;;5174891;27;19930;-70
2022/01/15 02:02:42;;;;;;;;;;;6.20;99.90;;;;;;5158625;27;19927;-69
2022/01/15 02:05:08;;;;;;;;;;;6.20;99.90;;;;;;5157864;27;19923;-70
2022/01/15 02:07:33;;;;;;;;;;;6.20;99.90;;;;;;5176007;27;20389;-71
2022/01/15 02:09:59;;;;;;;;;;;6.20;99.90;;;;;;5120382;27;19931;-70
2022/01/15 02:12:25;;;;;;;;;;;6.20;99.90;;;;;;5157867;27;19956;-70
2022/01/15 02:14:50;;;;;;;;;;;6.10;99.90;;;;;;5157715;27;19929;-69
2022/01/15 02:17:21;;;;;;;;;;;6.10;99.90;;;;;;5176605;27;19927;-71
2022/01/15 02:25:14;;;;;;;;;;;6.10;99.90;;;;;;5150122;27;19930;-70
2022/01/15 02:27:40;;;;;;;;;;;6.10;99.90;;;;;;5169325;27;20295;-70
2022/01/15 02:30:06;;;;;;;;;;;6.00;99.90;;;;;;5120007;27;19934;-70
2022/01/15 02:32:32;;;;;;;;;;;6.10;99.90;;;;;;5156007;27;19969;-70
2022/01/15 02:35:01;;;;;;;;;;;6.10;99.90;;;;;;5137349;27;20014;-71
2022/01/15 02:37:28;;;;;;;;;;;6.20;99.90;;;;;;5152748;27;19962;-70
2022/01/15 02:39:54;;;;;;;;;;;6.10;99.90;;;;;;5175943;27;19923;-70
2022/01/15 02:42:20;;;;;;;;;;;6.10;99.90;;;;;;5157872;27;20023;-70
2022/01/15 02:44:45;;;;;;;;;;;6.10;99.90;;;;;;5142011;27;20010;-70
2022/01/15 02:49:58;;;;;;;;;;;6.20;99.90;;;;;;5156694;27;19923;-69
2022/01/15 02:52:24;;;;;;;;;;;6.20;99.90;;;;;;5155365;27;19997;-69
2022/01/15 02:54:49;;;;;;;;;;;6.20;99.90;;;;;;5136745;27;19930;-67
2022/01/15 02:57:15;;;;;;;;;;;6.10;99.90;;;;;;5137291;27;19971;-69
2022/01/15 02:59:41;;;;;;;;;;;6.20;99.90;;;;;;5120812;27;19930;-67
2022/01/15 03:02:06;;;;;;;;;;;6.20;99.90;;;;;;5120451;27;19923;-67
2022/01/15 03:04:32;;;;;;;;;;;6.30;99.90;;;;;;5137827;27;19923;-67
2022/01/15 03:06:57;;;;;;;;;;;6.20;99.90;;;;;;5155645;27;19923;-68
2022/01/15 03:09:23;;;;;;;;;;;6.20;99.90;;;;;;5137278;27;20010;-67
2022/01/15 03:11:49;;;;;;;;;;;6.20;99.90;;;;;;5155837;27;19970;-68
2022/01/15 03:14:18;;;;;;;;;;;6.20;99.90;;;;;;5120213;27;19923;-68
2022/01/15 03:16:44;;;;;;;;;;;6.20;99.90;;;;;;5138095;27;19981;-68
2022/01/15 03:19:09;;;;;;;;;;;6.20;99.90;;;;;;5137071;27;19970;-69
2022/01/15 03:21:35;;;;;;;;;;;6.20;99.90;;;;;;5120317;27;19922;-67
2022/01/15 03:24:01;;;;;;;;;;;6.10;99.90;;;;;;5136858;27;20389;-67
2022/01/15 03:26:26;;;;;;;;;;;6.20;99.90;;;;;;5155703;27;19923;-68
2022/01/15 03:28:52;;;;;;;;;;;6.20;99.90;;;;;;5155548;27;20006;-67
2022/01/15 03:31:20;;;;;;;;;;;6.20;99.90;;;;;;5137124;27;20368;-67
2022/01/15 03:33:46;;;;;;;;;;;6.10;99.90;;;;;;5137347;27;20256;-67
2022/01/15 03:36:11;;;;;;;;;;;6.10;99.90;;;;;;5136620;27;19923;-67
2022/01/15 03:38:37;;;;;;;;;;;6.10;99.90;;;;;;5136689;27;20435;-66
2022/01/15 03:41:03;;;;;;;;;;;6.10;99.90;;;;;;5119403;27;19967;-68
2022/01/15 03:43:29;;;;;;;;;;;6.10;99.90;;;;;;5155260;27;20281;-67
2022/01/15 03:45:54;;;;;;;;;;;6.10;99.90;;;;;;5155168;27;19930;-68
2022/01/15 03:48:20;;;;;;;;;;;6.20;99.90;;;;;;5135688;27;19930;-66
2022/01/15 03:50:46;;;;;;;;;;;6.10;99.90;;;;;;5153999;27;19930;-68
2022/01/15 03:53:11;;;;;;;;;;;6.20;99.90;;;;;;5136669;27;19923;-67
2022/01/15 03:55:40;;;;;;;;;;;6.10;99.90;;;;;;5136822;27;19919;-67
2022/01/15 03:58:06;;;;;;;;;;;6.10;99.90;;;;;;5154658;27;20010;-69
2022/01/15 04:00:32;;;;;;;;;;;6.10;99.90;;;;;;5136589;27;20325;-68
2022/01/15 04:02:58;;;;;;;;;;;6.10;99.90;;;;;;5136599;27;19931;-68
2022/01/15 04:05:23;;;;;;;;;;;6.10;99.90;;;;;;5119077;27;20013;-67
2022/01/15 04:07:49;;;;;;;;;;;6.10;99.90;;;;;;5136717;27;20018;-67
2022/01/15 04:10:16;;;;;;;;;;;6.20;99.90;;;;;;5135829;27;19919;-67
2022/01/15 04:12:41;;;;;;;;;;;6.00;99.90;;;;;;5119626;27;20317;-67
2022/01/15 04:15:08;;;;;;;;;;;6.00;99.90;;;;;;5135979;27;19923;-68
2022/01/15 04:17:34;;;;;;;;;;;6.00;99.90;;;;;;5154742;27;20287;-67
2022/01/15 04:19:59;;;;;;;;;;;6.00;99.90;;;;;;5154470;27;19923;-67
2022/01/15 04:22:25;;;;;;;;;;;6.00;99.90;;;;;;5118056;27;19974;-68
2022/01/15 04:24:51;;;;;;;;;;;6.00;99.90;;;;;;5154419;27;19923;-67
2022/01/15 04:27:21;;;;;;;;;;;6.10;99.90;;;;;;5154231;27;19923;-66
2022/01/15 04:29:48;;;;;;;;;;;6.00;99.90;;;;;;5135910;27;20477;-68
2022/01/15 04:32:13;;;;;;;;;;;6.10;99.90;;;;;;5135644;27;20341;-67
2022/01/15 04:34:42;;;;;;;;;;;6.00;99.90;;;;;;5154499;27;20014;-68
2022/01/15 04:37:13;;;;;;;;;;;6.00;99.90;;;;;;5135993;27;19949;-68
2022/01/15 04:39:40;;;;;;;;;;;6.00;99.90;;;;;;5136015;27;19927;-67
2022/01/15 04:42:06;;;;;;;;;;;6.00;99.90;;;;;;5135759;27;19922;-67
2022/01/15 04:44:32;;;;;;;;;;;6.00;99.90;;;;;;5135611;27;19946;-67
2022/01/15 04:46:59;;;;;;;;;;;6.00;99.90;;;;;;5135516;27;19923;-69
2022/01/15 04:49:25;;;;;;;;;;;6.00;99.90;;;;;;5118769;27;19923;-67
2022/01/15 04:51:50;;;;;;;;;;;6.00;99.90;;;;;;5154022;27;19923;-68
2022/01/15 04:54:16;;;;;;;;;;;6.00;99.90;;;;;;5135370;27;19923;-68
2022/01/15 04:56:41;;;;;;;;;;;6.00;99.90;;;;;;5135770;27;19930;-67
2022/01/15 04:59:07;;;;;;;;;;;6.00;99.90;;;;;;5135725;27;20386;-68
2022/01/15 05:01:32;;;;;;;;;;;6.00;99.90;;;;;;5153614;27;19974;-67
2022/01/15 05:03:58;;;;;;;;;;;6.00;99.90;;;;;;5135887;27;19923;-67
2022/01/15 05:06:24;;;;;;;;;;;6.00;99.90;;;;;;5135127;27;19923;-66
2022/01/15 05:09:00;;;;;;;;;;;6.00;99.90;;;;;;5118802;27;19919;-67
2022/01/15 05:11:31;;;;;;;;;;;6.00;99.90;;;;;;5153566;27;19922;-69
2022/01/15 05:13:56;;;;;;;;;;;6.00;99.90;;;;;;5135520;27;20372;-67
2022/01/15 05:16:22;;;;;;;;;;;6.00;99.90;;;;;;5134979;27;19923;-67
2022/01/15 05:18:47;;;;;;;;;;;6.00;99.90;;;;;;5153956;27;19923;-68
2022/01/15 05:21:13;;;;;;;;;;;6.00;99.90;;;;;;5135457;27;19923;-70
2022/01/15 05:23:38;;;;;;;;;;;6.00;99.90;;;;;;5153863;27;20017;-67
2022/01/15 05:26:04;;;;;;;;;;;6.00;99.90;;;;;;5135143;27;19970;-67
2022/01/15 05:28:30;;;;;;;;;;;6.00;99.90;;;;;;5135250;27;19923;-68
2022/01/15 05:30:55;;;;;;;;;;;6.00;99.90;;;;;;5135626;27;19930;-67
2022/01/15 05:33:21;;;;;;;;;;;6.00;99.90;;;;;;5136321;27;19970;-67
2022/01/15 05:35:46;;;;;;;;;;;6.00;99.90;;;;;;5139431;27;20012;-67
2022/01/15 05:38:12;;;;;;;;;;;6.00;99.90;;;;;;5139328;27;19923;-67
2022/01/15 05:40:38;;;;;;;;;;;6.00;99.90;;;;;;5138987;27;19919;-68
2022/01/15 05:43:03;;;;;;;;;;;6.00;99.90;;;;;;5122077;27;19977;-67
2022/01/15 05:45:29;;;;;;;;;;;6.10;99.90;;;;;;5138870;27;19931;-67
2022/01/15 05:47:55;;;;;;;;;;;6.10;99.90;;;;;;5157777;27;19991;-68
2022/01/15 05:50:21;;;;;;;;;;;6.10;99.90;;;;;;5138654;27;19927;-67
2022/01/15 05:52:46;;;;;;;;;;;6.10;99.90;;;;;;5157636;27;19923;-68
2022/01/15 05:55:12;;;;;;;;;;;6.10;99.90;;;;;;5139215;27;19974;-68
2022/01/15 05:57:38;;;;;;;;;;;6.10;99.90;;;;;;5139052;27;20030;-68
2022/01/15 06:00:05;;;;;;;;;;;6.10;99.90;;;;;;5139042;27;20354;-67
2022/01/15 06:02:30;;;;;;;;;;;6.10;99.90;;;;;;5156868;27;19931;-68
2022/01/15 06:04:56;;;;;;;;;;;6.10;99.90;;;;;;5138948;27;19927;-68
2022/01/15 06:07:21;;;;;;;;;;;6.10;99.90;;;;;;5138467;27;20375;-68
2022/01/15 06:09:47;;;;;;;;;;;6.10;99.90;;;;;;5157203;27;19924;-67
2022/01/15 06:12:12;;;;;;;;;;;6.10;99.90;;;;;;5138875;27;19923;-68
2022/01/15 06:14:38;;;;;;;;;;;6.20;99.90;;;;;;5138306;27;19987;-67
2022/01/15 06:17:04;;;;;;;;;;;6.10;99.90;;;;;;5157189;27;19923;-67
2022/01/15 06:19:32;;;;;;;;;;;6.20;99.90;;;;;;5104404;27;19930;-67
2022/01/15 06:21:58;;;;;;;;;;;6.20;99.90;;;;;;5157039;27;19923;-68
2022/01/15 06:24:23;;;;;;;;;;;6.20;99.90;;;;;;5137832;27;20372;-66
2022/01/15 06:26:49;;;;;;;;;;;6.20;99.90;;;;;;5138188;27;19923;-68
2022/01/15 06:29:15;;;;;;;;;;;6.20;99.90;;;;;;5156683;27;19923;-68
2022/01/15 06:31:40;;;;;;;;;;;6.10;99.90;;;;;;5137984;27;20399;-67
2022/01/15 06:34:06;;;;;;;;;;;6.10;99.90;;;;;;5156654;27;19931;-67
2022/01/15 06:36:31;;;;;;;;;;;6.10;99.90;;;;;;5137733;27;19931;-66
2022/01/15 06:38:57;;;;;;;;;;;6.10;99.90;;;;;;5156559;27;20372;-68
2022/01/15 06:41:23;;;;;;;;;;;6.20;99.90;;;;;;5138143;27;20456;-68
2022/01/15 06:43:48;;;;;;;;;;;6.20;99.90;;;;;;5137562;27;20098;-68
2022/01/15 06:46:14;;;;;;;;;;;6.20;99.90;;;;;;5119603;27;19923;-67
2022/01/15 06:48:39;;;;;;;;;;;6.10;99.90;;;;;;5138115;27;19923;-68
2022/01/15 06:51:05;;;;;;;;;;;6.10;99.90;;;;;;5156389;27;19931;-66
2022/01/15 06:53:31;;;;;;;;;;;6.10;99.90;;;;;;5120523;27;19923;-68
2022/01/15 06:55:56;;;;;;;;;;;6.10;99.90;;;;;;5156356;27;20384;-68
2022/01/15 06:58:22;;;;;;;;;;;6.10;99.90;;;;;;5120600;27;20355;-67
2022/01/15 07:00:48;;;;;;;;;;;6.00;99.90;;;;;;5137624;27;19923;-66
2022/01/15 07:03:14;;;;;;;;;;;6.10;99.90;;;;;;5138106;27;19923;-68
2022/01/15 07:05:40;;;;;;;;;;;6.00;99.90;;;;;;5137182;27;20436;-67
2022/01/15 07:08:06;;;;;;;;;;;6.00;99.90;;;;;;5156043;27;19930;-67
2022/01/15 07:10:32;;;;;;;;;;;6.00;99.90;;;;;;5155795;27;20256;-68
2022/01/15 07:12:58;;;;;;;;;;;6.10;99.90;;;;;;5156248;27;19977;-67
2022/01/15 07:15:23;;;;;;;;;;;6.00;99.90;;;;;;5156072;27;19970;-67
2022/01/15 07:17:49;;;;;;;;;;;6.00;99.90;;;;;;5120242;27;19935;-66
2022/01/15 07:20:16;;;;;;;;;;;6.10;99.90;;;;;;5137509;27;19953;-67
2022/01/15 07:22:42;;;;;;;;;;;6.00;99.90;;;;;;5137282;27;20324;-67
2022/01/15 07:25:08;;;;;;;;;;;5.90;99.90;;;;;;5155654;27;19923;-67
2022/01/15 07:27:34;;;;;;;;;;;5.90;99.90;;;;;;5155372;27;19923;-68
2022/01/15 07:30:01;;;;;;;;;;;5.90;99.90;;;;;;5137466;27;19923;-69
2022/01/15 07:32:27;;;;;;;;;;;6.00;99.90;;;;;;5137284;27;19966;-67
2022/01/15 07:34:52;;;;;;;;;;;5.90;99.90;;;;;;5155226;27;19982;-66
2022/01/15 07:37:18;;;;;;;;;;;5.90;99.90;;;;;;5155307;27;20236;-66
2022/01/15 07:39:43;;;;;;;;;;;5.90;99.90;;;;;;5154854;27;19923;-67
2022/01/15 07:42:10;;;;;;;;;;;5.90;99.90;;;;;;5136994;27;19927;-67
2022/01/15 07:44:36;;;;;;;;;;;5.90;99.90;;;;;;5136536;27;20298;-67
2022/01/15 07:47:01;;;;;;;;;;;5.90;99.90;;;;;;5136275;27;19923;-68
2022/01/15 07:49:27;;;;;;;;;;;5.90;99.90;;;;;;5136430;27;20352;-68
2022/01/15 07:51:53;;;;;;;;;;;5.90;99.90;;;;;;5119396;27;19923;-67
2022/01/15 07:54:18;;;;;;;;;;;5.90;99.90;;;;;;5136787;27;19927;-68
2022/01/15 07:56:44;;;;;;;;;;;5.90;99.90;;;;;;5135945;27;19982;-68
2022/01/15 07:59:10;;;;;;;;;;;5.90;99.90;;;;;;5136184;27;20021;-68
2022/01/15 08:01:35;;;;;;;;;;;5.90;99.90;;;;;;5136490;27;20013;-67
2022/01/15 08:04:02;;;;;;;;;;;5.90;99.90;;;;;;5136316;27;20341;-67
2022/01/15 08:06:27;;;;;;;;;;;5.90;99.90;;;;;;5154767;27;19923;-68
2022/01/15 08:08:53;;;;;;;;;;;5.90;99.90;;;;;;5154548;27;20221;-67
2022/01/15 08:11:18;;;;;;;;;;;5.90;99.90;;;;;;5119504;27;19927;-67
2022/01/15 08:13:44;;;;;;;;;;;5.90;99.90;;;;;;5118800;27;19923;-67
2022/01/15 08:16:09;;;;;;;;;;;5.90;99.90;;;;;;5136638;27;19923;-67
2022/01/15 08:18:35;;;;;;;;;;;5.90;99.90;;;;;;5102363;27;19946;-67
2022/01/15 08:21:03;;;;;;;;;;;5.90;99.90;;;;;;5135691;27;20263;-68
2022/01/15 08:23:29;;;;;;;;;;;5.80;99.90;;;;;;5136312;27;20313;-68
2022/01/15 08:25:55;;;;;;;;;;;5.80;99.90;;;;;;5154006;27;19927;-67
2022/01/15 08:28:23;;;;;;;;;;;5.80;99.90;;;;;;5135949;27;19923;-68
2022/01/15 08:30:50;;;;;;;;;;;5.80;99.90;;;;;;5153816;27;19930;-68
2022/01/15 08:33:15;;;;;;;;;;;5.80;99.90;;;;;;5136147;27;19927;-68
2022/01/15 08:35:41;;;;;;;;;;;5.90;99.90;;;;;;5153952;27;20401;-74
2022/01/15 08:38:07;;;;;;;;;;;6.00;99.90;;;;;;5154267;27;19919;-68
2022/01/15 08:40:33;;;;;;;;;;;5.80;99.90;;;;;;5154316;27;19931;-67
2022/01/15 08:42:59;;;;;;;;;;;5.80;99.90;;;;;;5135267;27;19983;-67
2022/01/15 08:45:26;;;;;;;;;;;5.80;99.90;;;;;;5118805;27;19930;-66
2022/01/15 08:47:53;;;;;;;;;;;5.80;99.90;;;;;;5118068;27;20412;-67
2022/01/15 08:50:18;;;;;;;;;;;5.90;99.90;;;;;;5153987;27;19975;-68
2022/01/15 08:52:44;;;;;;;;;;;5.90;99.90;;;;;;5153932;27;20337;-69
2022/01/15 08:55:10;;;;;;;;;;;5.90;99.90;;;;;;5118648;27;19923;-67
2022/01/15 08:57:36;;;;;;;;;;;5.90;99.90;;;;;;5153977;27;19985;-67
2022/01/15 09:00:04;;;;;;;;;;;5.90;99.90;;;;;;5135207;27;20100;-67
2022/01/15 09:02:29;;;;;;;;;;;5.90;99.90;;;;;;5153848;27;19967;-66
2022/01/15 09:04:55;;;;;;;;;;;6.00;99.90;;;;;;5153590;27;19926;-67
2022/01/15 09:07:21;;;;;;;;;;;5.90;99.90;;;;;;5135175;27;19930;-66
2022/01/15 09:09:46;;;;;;;;;;;5.80;99.90;;;;;;5135008;27;19931;-69
2022/01/15 09:12:20;;;;;;;;;;;5.80;99.90;;;;;;5153764;27;19960;-67
2022/01/15 09:14:45;;;;;;;;;;;5.80;99.90;;;;;;5135375;27;19930;-67
2022/01/15 09:17:11;;;;;;;;;;;5.80;99.90;;;;;;5118192;27;19923;-66
2022/01/15 09:19:36;;;;;;;;;;;5.80;99.90;;;;;;5135560;27;19924;-66
2022/01/15 09:22:06;;;;;;;;;;;5.80;99.90;;;;;;5135062;27;19971;-67
2022/01/15 09:24:31;;;;;;;;;;;5.80;99.90;;;;;;5135412;27;19923;-67
2022/01/15 09:32:07;;;;;;;;;;;5.70;99.90;;;;;;5135059;27;19923;-67
2022/01/15 09:34:34;;;;;;;;;;;5.70;99.90;;;;;;5135314;27;19923;-68
2022/01/15 09:37:00;;;;;;;;;;;5.80;99.90;;;;;;5135098;27;19930;-66
2022/01/15 09:39:29;;;;;;;;;;;5.70;99.90;;;;;;5135554;27;19956;-69
2022/01/15 09:41:55;;;;;;;;;;;5.80;99.90;;;;;;5117630;27;20391;-67
2022/01/15 09:44:22;;;;;;;;;;;5.70;99.90;;;;;;5153454;27;19969;-68
2022/01/15 09:46:50;;;;;;;;;;;5.70;99.90;;;;;;5153150;27;19930;-68
2022/01/15 09:49:17;;;;;;;;;;;5.80;99.90;;;;;;5135088;27;20013;-67
2022/01/15 09:51:43;;;;;;;;;;;5.70;99.90;;;;;;5153408;27;19927;-66
2022/01/15 09:54:09;;;;;;;;;;;5.70;99.90;;;;;;5117822;27;19986;-67
2022/01/15 09:56:34;;;;;;;;;;;5.70;99.90;;;;;;5153290;27;20377;-69
2022/01/15 09:59:02;;;;;;;;;;;5.70;99.90;;;;;;5134704;27;19931;-67
2022/01/15 10:01:29;;;;;;;;;;;5.70;99.90;;;;;;5135307;27;19923;-68
2022/01/15 10:03:55;;;;;;;;;;;5.80;99.90;;;;;;5134734;27;19985;-69
2022/01/15 10:06:20;;;;;;;;;;;5.70;99.90;;;;;;5153230;27;19923;-68
2022/01/15 10:09:04;;;;;;;;;;;5.70;99.90;;;;;;5153161;27;19923;-69
2022/01/15 10:11:46;;;;;;;;;;;5.70;99.90;;;;;;5135052;27;19934;-67
2022/01/15 10:14:32;;;;;;;;;;;5.70;99.90;;;;;;5153041;27;19923;-68
2022/01/15 10:16:58;;;;;;;;;;;5.70;99.90;;;;;;5134470;27;19923;-67
2022/01/15 10:19:37;;;;;;;;;;;5.80;99.90;;;;;;5118028;27;19972;-68
2022/01/15 10:22:13;;;;;;;;;;;5.70;99.90;;;;;;5121098;27;19971;-67
2022/01/15 10:24:40;;;;;;;;;;;5.70;99.90;;;;;;5138325;27;20131;-66
2022/01/15 10:27:24;;;;;;;;;;;5.70;99.90;;;;;;5138222;27;19986;-67
2022/01/15 10:29:54;;;;;;;;;;;5.70;99.90;;;;;;5138526;27;19927;-68
2022/01/15 10:32:20;;;;;;;;;;;5.70;99.90;;;;;;5137783;27;20294;-67
2022/01/15 10:34:46;;;;;;;;;;;5.80;99.90;;;;;;5156631;27;19931;-67
2022/01/15 10:37:13;;;;;;;;;;;5.80;99.90;;;;;;5137787;27;20064;-67
2022/01/15 10:39:40;;;;;;;;;;;5.90;99.90;;;;;;5156545;27;20292;-66
2022/01/15 10:42:15;;;;;;;;;;;5.80;99.90;;;;;;5155931;27;19923;-67
2022/01/15 10:44:42;;;;;;;;;;;5.80;99.90;;;;;;5137950;27;20287;-68
2022/01/15 10:47:07;;;;;;;;;;;5.80;99.90;;;;;;5120335;27;19923;-67
2022/01/15 10:49:34;;;;;;;;;;;5.90;99.90;;;;;;5137728;27;20031;-67
2022/01/15 10:52:07;;;;;;;;;;;5.90;99.90;;;;;;5137975;27;20055;-68
2022/01/15 10:54:34;;;;;;;;;;;5.90;99.90;;;;;;5137619;27;20291;-68
2022/01/15 10:57:07;;;;;;;;;;;5.90;99.90;;;;;;5156341;27;19993;-67
2022/01/15 10:59:32;;;;;;;;;;;5.90;99.90;;;;;;5137834;27;19930;-67
2022/01/15 11:02:19;;;;;;;;;;;5.90;99.90;;;;;;5137798;27;19923;-67
2022/01/15 11:04:45;;;;;;;;;;;5.90;99.90;;;;;;5137280;27;19946;-68
2022/01/15 11:07:11;;;;;;;;;;;5.80;99.90;;;;;;5136892;27;19923;-67
2022/01/15 11:09:37;;;;;;;;;;;5.90;99.90;;;;;;5155632;27;19990;-66
2022/01/15 11:12:04;;;;;;;;;;;5.80;99.90;;;;;;5155758;27;20013;-68
2022/01/15 11:14:30;;;;;;;;;;;5.80;99.90;;;;;;5103491;27;19923;-67
2022/01/15 11:16:57;;;;;;;;;;;5.80;99.90;;;;;;5137049;27;19930;-68
2022/01/15 11:19:23;;;;;;;;;;;5.80;99.90;;;;;;5136555;27;20268;-67
2022/01/15 11:21:49;;;;;;;;;;;5.80;99.90;;;;;;5136571;27;19975;-66
2022/01/15 11:24:17;;;;;;;;;;;5.80;99.90;;;;;;5136603;27;19970;-67
2022/01/15 11:26:43;;;;;;;;;;;5.80;99.90;;;;;;5155288;27;19923;-68
2022/01/15 11:29:10;;;;;;;;;;;5.80;99.90;;;;;;5136726;27;19934;-69
2022/01/15 11:31:36;;;;;;;;;;;5.80;99.90;;;;;;5136413;27;20103;-69
2022/01/15 11:34:03;;;;;;;;;;;5.80;99.90;;;;;;5137000;27;19923;-67
2022/01/15 11:36:30;;;;;;;;;;;5.80;99.90;;;;;;5136027;27;20426;-66
2022/01/15 11:38:57;;;;;;;;;;;5.80;99.90;;;;;;5136964;27;19930;-67
2022/01/15 11:41:22;;;;;;;;;;;5.80;99.90;;;;;;5136284;27;19930;-68
2022/01/15 11:43:52;;;;;;;;;;;5.80;99.90;;;;;;5119386;27;19946;-67
2022/01/15 11:46:25;;;;;;;;;;;5.90;99.90;;;;;;5118500;27;19963;-68
2022/01/15 11:48:51;;;;;;;;;;;5.90;99.90;;;;;;5136597;27;19929;-67
2022/01/15 11:51:18;;;;;;;;;;;5.90;99.90;;;;;;5154623;27;20026;-68
2022/01/15 11:53:54;;;;;;;;;;;5.90;99.90;;;;;;5136645;27;19931;-67
2022/01/15 11:56:25;;;;;;;;;;;5.90;99.90;;;;;;5136283;27;19930;-67
2022/01/15 11:58:53;;;;;;;;;;;5.90;99.90;;;;;;5136583;27;19923;-67
2022/01/15 12:01:38;;;;;;;;;;;5.80;99.90;;;;;;5118632;27;19984;-68
2022/01/15 12:04:22;;;;;;;;;;;5.80;99.90;;;;;;5118840;27;19923;-67
2022/01/15 12:07:04;;;;;;;;;;;5.80;99.90;;;;;;5154017;27;19930;-66
2022/01/15 12:09:30;;;;;;;;;;;5.90;99.90;;;;;;5118400;27;20360;-68
2022/01/15 12:11:55;;;;;;;;;;;5.80;99.90;;;;;;5135127;27;19975;-68
2022/01/15 12:14:40;;;;;;;;;;;5.90;99.90;;;;;;5135376;27;19930;-68
2022/01/15 12:17:35;;;;;;;;;;;5.80;99.90;;;;;;5136410;27;20013;-67
2022/01/15 12:20:03;;;;;;;;;;;5.70;99.90;;;;;;5117638;27;20017;-68
2022/01/15 12:22:45;;;;;;;;;;;5.80;99.90;;;;;;5134962;27;19927;-68
2022/01/15 12:25:12;;;;;;;;;;;5.70;99.90;;;;;;5133811;27;19967;-69
2022/01/15 12:27:38;;;;;;;;;;;5.70;99.90;;;;;;5136789;27;20002;-70
2022/01/15 12:30:05;;;;;;;;;;;5.60;99.90;;;;;;5154210;27;20029;-70
2022/01/15 12:32:31;;;;;;;;;;;5.60;99.90;;;;;;5135465;27;19923;-69
2022/01/15 12:34:58;;;;;;;;;;;5.60;99.90;;;;;;5135800;27;19923;-69
2022/01/15 12:37:24;;;;;;;;;;;5.60;99.90;;;;;;5117733;27;19977;-72
2022/01/15 12:39:50;;;;;;;;;;;5.60;99.90;;;;;;5135579;27;19923;-69
2022/01/15 12:42:17;;;;;;;;;;;5.50;99.90;;;;;;5153590;27;20402;-69
2022/01/15 12:44:44;;;;;;;;;;;5.60;99.90;;;;;;5135292;27;19930;-69
2022/01/15 12:47:10;;;;;;;;;;;5.50;99.90;;;;;;5153643;27;19962;-68
2022/01/15 12:49:37;;;;;;;;;;;5.50;99.90;;;;;;5151236;27;20002;-69
2022/01/15 12:52:10;;;;;;;;;;;5.60;99.90;;;;;;5134125;27;19946;-69
2022/01/15 12:54:36;;;;;;;;;;;5.50;99.90;;;;;;5153168;27;19923;-69
2022/01/15 12:57:05;;;;;;;;;;;5.50;99.90;;;;;;5134774;27;19987;-70
2022/01/15 12:59:33;;;;;;;;;;;5.50;99.90;;;;;;5117950;27;19923;-69
2022/01/15 13:02:00;;;;;;;;;;;5.50;99.90;;;;;;5135764;27;19930;-69
2022/01/15 13:04:26;;;;;;;;;;;5.50;99.90;;;;;;5134954;27;19930;-69
2022/01/15 13:06:59;;;;;;;;;;;5.50;99.90;;;;;;5135100;27;19927;-69
2022/01/15 13:09:37;;;;;;;;;;;5.50;99.90;;;;;;5134890;27;19924;-68
2022/01/15 13:12:03;;;;;;;;;;;5.40;99.90;;;;;;5135418;27;19923;-71
2022/01/15 13:14:35;;;;;;;;;;;5.40;99.90;;;;;;5152977;27;20352;-70
2022/01/15 13:17:01;;;;;;;;;;;5.40;99.90;;;;;;5153514;27;20321;-70
2022/01/15 13:19:35;;;;;;;;;;;5.40;99.90;;;;;;5134343;27;19923;-68
2022/01/15 13:22:01;;;;;;;;;;;5.40;99.90;;;;;;5135039;27;20013;-68
2022/01/15 13:24:27;;;;;;;;;;;5.40;99.90;;;;;;5133941;27;20411;-67
2022/01/15 13:26:52;;;;;;;;;;;5.40;99.90;;;;;;5135017;27;19972;-69
2022/01/15 13:29:19;;;;;;;;;;;5.40;99.90;;;;;;5134749;27;19938;-69
2022/01/15 13:31:46;;;;;;;;;;;5.50;99.90;;;;;;5134820;27;19934;-67
2022/01/15 13:34:15;;;;;;;;;;;5.40;99.90;;;;;;5135152;27;19923;-66
2022/01/15 13:36:42;;;;;;;;;;;5.30;99.90;;;;;;5153187;27;19919;-69
2022/01/15 13:39:08;;;;;;;;;;;5.20;99.90;;;;;;5135270;27;19923;-67
2022/01/15 13:41:35;;;;;;;;;;;5.10;99.90;;;;;;5117792;27;20010;-67
2022/01/15 13:44:06;;;;;;;;;;;5.10;99.90;;;;;;5153811;27;20276;-68
2022/01/15 13:46:34;;;;;;;;;;;5.20;99.90;;;;;;5134188;27;19929;-68
2022/01/15 13:49:05;;;;;;;;;;;5.10;99.90;;;;;;5135286;27;20170;-66
2022/01/15 13:54:27;;;;;;;;;;;5.20;99.90;;;;;;5136268;27;19930;-67
2022/01/15 13:56:56;;;;;;;;;;;5.20;99.90;;;;;;5157378;27;19923;-66
2022/01/15 13:59:23;;;;;;;;;;;5.20;99.90;;;;;;5121511;27;19930;-67
2022/01/15 14:01:50;;;;;;;;;;;5.20;99.90;;;;;;5138497;27;19934;-67
2022/01/15 14:04:35;;;;;;;;;;;5.20;99.90;;;;;;5138801;27;20280;-67
2022/01/15 14:07:05;;;;;;;;;;;5.30;99.90;;;;;;5156936;27;19975;-66
2022/01/15 14:09:32;;;;;;;;;;;5.20;99.90;;;;;;5156606;27;19923;-68
2022/01/15 14:12:11;;;;;;;;;;;5.20;99.90;;;;;;5156351;27;19923;-69
2022/01/15 14:14:59;;;;;;;;;;;5.20;99.90;;;;;;5137432;27;19930;-67
2022/01/15 14:17:26;;;;;;;;;;;5.30;99.90;;;;;;5137905;27;19923;-68
2022/01/15 14:22:23;;;;;;;;;;;5.20;99.90;;;;;;5156196;27;19923;-68
2022/01/15 14:24:50;;;;;;;;;;;5.30;99.90;;;;;;5156096;27;19923;-68
2022/01/15 14:27:24;;;;;;;;;;;5.30;99.90;;;;;;5138102;27;20311;-66
2022/01/15 14:29:51;;;;;;;;;;;5.30;99.90;;;;;;5137837;27;19930;-66
2022/01/15 14:32:17;;;;;;;;;;;5.20;99.90;;;;;;5156327;27;20014;-69
2022/01/15 14:34:48;;;;;;;;;;;5.10;99.90;;;;;;5137698;27;20041;-68
2022/01/15 14:37:14;;;;;;;;;;;5.10;99.90;;;;;;5137921;27;19930;-67
2022/01/15 14:39:41;;;;;;;;;;;5.00;99.90;;;;;;5155260;27;19923;-67
2022/01/15 14:42:06;;;;;;;;;;;5.00;99.90;;;;;;5155666;27;19927;-65
2022/01/15 14:44:32;;;;;;;;;;;5.00;99.90;;;;;;5155689;27;19930;-67
2022/01/15 14:46:57;;;;;;;;;;;5.00;99.90;;;;;;5155809;27;19977;-64
2022/01/15 14:49:23;;;;;;;;;;;5.10;99.90;;;;;;5120502;27;20269;-66
2022/01/15 14:51:49;;;;;;;;;;;5.00;99.90;;;;;;5137207;27;19927;-66
2022/01/15 14:54:14;;;;;;;;;;;5.00;99.90;;;;;;5137447;27;19946;-65
2022/01/15 14:56:40;;;;;;;;;;;5.00;99.90;;;;;;5155692;27;19978;-65
2022/01/15 14:59:07;;;;;;;;;;;5.00;99.90;;;;;;5120237;27;20052;-66
2022/01/15 15:01:33;;;;;;;;;;;5.00;99.90;;;;;;5137810;27;19935;-66
2022/01/15 15:04:00;;;;;;;;;;;5.00;99.90;;;;;;5137265;27;20062;-67